createdAt,value
2022-12-25T00:01:22.046Z,31.85
2022-12-25T00:03:48.833Z,26.23
2022-12-25T00:06:15.302Z,38.63
2022-12-25T00:08:41.791Z,28.83
2022-12-25T00:11:11.658Z,33.88
2022-12-25T00:13:38.442Z,30.17
2022-12-25T00:16:06.532Z,35.10
2022-12-25T00:18:32.948Z,35.65
2022-12-25T00:21:00.186Z,25.52
2022-12-25T00:23:27.109Z,26.65
2022-12-25T00:25:54.066Z,26.25
2022-12-25T00:28:20.882Z,31.27
2022-12-25T00:30:47.637Z,27.50
2022-12-25T00:33:14.670Z,33.08
2022-12-25T00:35:41.227Z,27.45
2022-12-25T00:38:08.216Z,26.42
2022-12-25T00:40:34.524Z,34.25
2022-12-25T00:43:00.828Z,22.20
2022-12-25T00:45:27.191Z,32.40
2022-12-25T00:47:53.670Z,30.27
2022-12-25T00:50:19.960Z,28.42
2022-12-25T00:52:46.265Z,32.42
2022-12-25T00:55:12.716Z,25.48
2022-12-25T00:57:39.151Z,37.35
2022-12-25T01:00:05.722Z,32.85
2022-12-25T01:02:32.120Z,32.75
2022-12-25T01:04:58.533Z,25.70
2022-12-25T01:07:25.743Z,27.73
2022-12-25T01:10:10.903Z,36.03
2022-12-25T01:12:39.236Z,22.10
2022-12-25T01:15:07.075Z,32.90
2022-12-25T01:17:33.662Z,30.02
2022-12-25T01:20:00.044Z,20.95
2022-12-25T01:22:26.531Z,25.27
2022-12-25T01:24:52.863Z,42.88
2022-12-25T01:27:19.185Z,31.52
2022-12-25T01:29:45.798Z,27.40
2022-12-25T01:32:12.731Z,34.75
2022-12-25T01:34:39.250Z,25.23
2022-12-25T01:37:05.553Z,27.05
2022-12-25T01:39:32.157Z,36.58
2022-12-25T01:41:58.514Z,17.50
2022-12-25T01:44:37.034Z,27.77
2022-12-25T01:47:04.450Z,27.60
2022-12-25T01:49:31.633Z,29.65
2022-12-25T01:51:57.995Z,28.42
2022-12-25T01:54:26.875Z,29.38
2022-12-25T01:56:55.262Z,26.58
2022-12-25T01:59:23.080Z,23.70
2022-12-25T02:01:49.527Z,26.02
2022-12-25T02:04:38.730Z,27.92
2022-12-25T02:07:16.025Z,26.40
2022-12-25T02:09:42.526Z,31.88
2022-12-25T02:12:11.809Z,30.63
2022-12-25T02:14:38.269Z,28.83
2022-12-25T02:17:20.343Z,27.27
2022-12-25T02:20:06.021Z,32.50
2022-12-25T02:22:41.783Z,22.65
2022-12-25T02:25:08.769Z,24.58
2022-12-25T02:27:53.882Z,26.02
2022-12-25T02:30:20.385Z,23.63
2022-12-25T02:33:15.328Z,29.35
2022-12-25T02:35:42.479Z,32.85
2022-12-25T02:38:14.826Z,28.33
2022-12-25T02:40:43.637Z,24.67
2022-12-25T02:43:36.812Z,28.88
2022-12-25T02:46:24.642Z,28.40
2022-12-25T02:49:11.846Z,26.80
2022-12-25T02:51:59.340Z,20.13
2022-12-25T02:54:51.965Z,29.33
2022-12-25T02:57:38.679Z,32.92
2022-12-25T03:00:24.443Z,32.22
2022-12-25T03:03:10.785Z,24.42
2022-12-25T03:05:57.166Z,29.73
2022-12-25T03:08:26.704Z,25.02
2022-12-25T03:11:19.214Z,31.90
2022-12-25T03:13:46.613Z,27.67
2022-12-25T03:16:31.550Z,30.10
2022-12-25T03:18:58.566Z,29.77
2022-12-25T03:21:43.774Z,35.58
2022-12-25T03:24:28.927Z,33.65
2022-12-25T03:26:57.351Z,28.20
2022-12-25T03:29:49.156Z,34.97
2022-12-25T03:32:30.520Z,30.90
2022-12-25T03:35:22.937Z,24.20
2022-12-25T03:38:14.101Z,25.58
2022-12-25T03:41:17.654Z,36.97
2022-12-25T03:44:22.672Z,30.77
2022-12-25T03:47:12.377Z,32.85
2022-12-25T03:50:12.011Z,32.92
2022-12-25T03:52:57.900Z,26.48
2022-12-25T03:55:43.808Z,29.92
2022-12-25T03:58:35.391Z,28.67
2022-12-25T04:01:20.321Z,30.63
2022-12-25T04:04:05.734Z,25.93
2022-12-25T04:06:50.603Z,32.10
2022-12-25T04:09:35.465Z,26.48
2022-12-25T04:12:20.378Z,35.13
2022-12-25T04:15:05.549Z,33.40
2022-12-25T04:17:50.297Z,25.90
2022-12-25T04:20:35.139Z,26.77
2022-12-25T04:23:19.801Z,29.13
2022-12-25T04:26:04.641Z,30.45
2022-12-25T04:28:49.511Z,29.35
2022-12-25T04:31:34.386Z,34.08
2022-12-25T04:34:19.364Z,29.27
2022-12-25T04:36:45.633Z,21.83
2022-12-25T04:39:11.973Z,30.70
2022-12-25T04:41:38.297Z,25.15
2022-12-25T04:44:04.759Z,21.58
2022-12-25T04:46:31.092Z,24.23
2022-12-25T04:48:57.479Z,22.17
2022-12-25T04:51:24.653Z,26.70
2022-12-25T04:53:51.450Z,31.42
2022-12-25T04:56:18.505Z,25.50
2022-12-25T04:58:45.149Z,24.33
2022-12-25T05:01:12.833Z,21.15
2022-12-25T05:03:39.487Z,26.00
2022-12-25T05:06:06.149Z,17.70
2022-12-25T05:08:33.155Z,17.83
2022-12-25T05:10:59.535Z,22.75
2022-12-25T05:13:25.924Z,25.90
2022-12-25T05:15:52.501Z,18.70
2022-12-25T05:18:18.969Z,23.85
2022-12-25T05:20:51.252Z,21.63
2022-12-25T05:23:17.584Z,21.27
2022-12-25T05:25:43.879Z,23.00
2022-12-25T05:28:10.236Z,19.95
2022-12-25T05:30:36.563Z,14.75
2022-12-25T05:33:03.346Z,17.45
2022-12-25T05:35:29.906Z,14.50
2022-12-25T05:37:56.378Z,22.35
2022-12-25T05:40:22.800Z,19.88
2022-12-25T05:42:49.056Z,19.33
2022-12-25T05:45:15.340Z,24.90
2022-12-25T05:47:42.178Z,12.13
2022-12-25T05:50:08.757Z,19.63
2022-12-25T05:52:35.405Z,17.42
2022-12-25T05:55:01.721Z,16.17
2022-12-25T05:57:28.733Z,16.20
2022-12-25T05:59:55.036Z,21.70
2022-12-25T06:02:22.131Z,13.88
2022-12-25T06:04:48.567Z,19.98
2022-12-25T06:07:14.830Z,18.27
2022-12-25T06:09:41.174Z,16.05
2022-12-25T06:12:07.569Z,16.38
2022-12-25T06:14:33.952Z,19.83
2022-12-25T06:17:00.315Z,13.98
2022-12-25T06:19:26.636Z,19.33
2022-12-25T06:21:54.329Z,16.58
2022-12-25T06:24:21.768Z,18.55
2022-12-25T06:26:48.441Z,18.70
2022-12-25T06:29:14.842Z,14.10
2022-12-25T06:31:41.252Z,23.92
2022-12-25T06:34:07.625Z,13.55
2022-12-25T06:36:33.922Z,14.52
2022-12-25T06:39:00.847Z,10.80
2022-12-25T06:41:28.086Z,15.55
2022-12-25T06:43:55.342Z,17.75
2022-12-25T06:46:22.219Z,13.95
2022-12-25T06:48:49.738Z,16.10
2022-12-25T06:51:16.887Z,12.45
2022-12-25T06:53:43.222Z,14.27
2022-12-25T06:56:15.188Z,13.70
2022-12-25T06:58:45.403Z,14.00
2022-12-25T07:01:22.320Z,16.90
2022-12-25T07:03:50.053Z,17.00
2022-12-25T07:06:16.306Z,17.48
2022-12-25T07:08:42.886Z,15.07
2022-12-25T07:11:09.250Z,16.48
2022-12-25T07:13:35.684Z,13.77
2022-12-25T07:16:03.190Z,13.48
2022-12-25T07:18:30.421Z,13.18
2022-12-25T07:20:59.275Z,15.48
2022-12-25T07:23:26.148Z,21.25
2022-12-25T07:25:56.199Z,12.65
2022-12-25T07:28:22.583Z,16.67
2022-12-25T07:30:49.054Z,15.95
2022-12-25T07:33:15.962Z,15.68
2022-12-25T07:35:42.508Z,15.63
2022-12-25T07:38:09.149Z,12.50
2022-12-25T07:40:35.733Z,15.15
2022-12-25T07:43:02.508Z,13.38
2022-12-25T07:45:28.820Z,12.43
2022-12-25T07:47:55.296Z,11.00
2022-12-25T07:50:22.653Z,14.73
2022-12-25T07:52:48.940Z,13.10
2022-12-25T07:55:15.303Z,11.73
2022-12-25T07:57:41.931Z,12.88
2022-12-25T08:00:08.731Z,14.88
2022-12-25T08:02:35.193Z,13.73
2022-12-25T08:05:01.676Z,13.02
2022-12-25T08:07:28.152Z,16.83
2022-12-25T08:09:54.564Z,11.35
2022-12-25T08:12:20.852Z,10.07
2022-12-25T08:14:47.220Z,10.25
2022-12-25T08:17:14.065Z,11.60
2022-12-25T08:19:40.630Z,16.70
2022-12-25T08:22:07.286Z,16.80
2022-12-25T08:24:33.612Z,12.25
2022-12-25T08:26:59.958Z,14.85
2022-12-25T08:29:28.873Z,9.15
2022-12-25T08:31:55.173Z,11.43
2022-12-25T08:34:21.451Z,11.80
2022-12-25T08:36:47.795Z,11.88
2022-12-25T08:39:14.158Z,15.73
2022-12-25T08:41:40.903Z,11.68
2022-12-25T08:44:07.305Z,12.00
2022-12-25T08:46:33.719Z,7.82
2022-12-25T08:49:00.089Z,10.68
2022-12-25T08:51:26.540Z,9.73
2022-12-25T08:53:53.492Z,14.50
2022-12-25T08:56:20.069Z,11.25
2022-12-25T08:58:46.463Z,10.23
2022-12-25T09:01:13.664Z,14.10
2022-12-25T09:03:40.192Z,39.63
2022-12-25T09:06:14.402Z,9.63
2022-12-25T09:08:47.786Z,8.13
2022-12-25T09:11:16.301Z,10.23
2022-12-25T09:13:43.002Z,9.23
2022-12-25T09:16:11.129Z,12.77
2022-12-25T09:18:37.545Z,12.15
2022-12-25T09:21:05.412Z,13.98
2022-12-25T09:23:32.424Z,14.55
2022-12-25T09:25:59.694Z,12.43
2022-12-25T09:28:26.713Z,7.35
2022-12-25T09:30:53.519Z,11.02
2022-12-25T09:33:20.594Z,16.15
2022-12-25T09:35:57.113Z,11.45
2022-12-25T09:38:23.917Z,14.18
2022-12-25T09:41:01.206Z,10.23
2022-12-25T09:43:29.178Z,14.13
2022-12-25T09:45:56.272Z,9.45
2022-12-25T09:48:22.958Z,13.45
2022-12-25T09:50:51.845Z,11.35
2022-12-25T09:53:21.965Z,7.70
2022-12-25T09:56:10.118Z,12.30
2022-12-25T09:58:36.667Z,9.50
2022-12-25T10:01:12.126Z,13.98
2022-12-25T10:06:14.082Z,10.95
2022-12-25T10:11:25.100Z,10.63
2022-12-25T10:14:09.846Z,9.15
2022-12-25T10:16:55.721Z,11.73
2022-12-25T10:19:24.969Z,10.75
2022-12-25T10:21:53.648Z,17.77
2022-12-25T10:24:22.750Z,13.05
2022-12-25T10:26:50.285Z,12.23
2022-12-25T10:29:19.458Z,12.43
2022-12-25T10:31:46.773Z,12.13
2022-12-25T10:34:13.982Z,11.77
2022-12-25T10:36:42.694Z,9.55
2022-12-25T10:39:15.442Z,10.63
2022-12-25T10:42:04.514Z,16.52
2022-12-25T10:44:30.946Z,13.48
2022-12-25T10:46:58.291Z,13.48
2022-12-25T10:49:28.003Z,10.40
2022-12-25T10:51:54.293Z,11.20
2022-12-25T10:54:25.271Z,16.05
2022-12-25T10:56:56.044Z,12.68
2022-12-25T10:59:23.176Z,16.08
2022-12-25T11:01:54.905Z,12.07
2022-12-25T11:04:24.929Z,12.57
2022-12-25T11:07:03.674Z,14.70
2022-12-25T11:09:30.082Z,11.13
2022-12-25T11:11:56.725Z,12.02
2022-12-25T11:14:23.271Z,12.02
2022-12-25T11:16:50.433Z,16.13
2022-12-25T11:19:25.659Z,12.95
2022-12-25T11:21:53.725Z,16.90
2022-12-25T11:24:21.188Z,16.60
2022-12-25T11:26:49.569Z,14.05
2022-12-25T11:29:25.395Z,15.75
2022-12-25T11:31:53.688Z,14.45
2022-12-25T11:34:55.505Z,12.98
2022-12-25T11:37:25.490Z,12.55
2022-12-25T11:39:51.914Z,19.15
2022-12-25T11:42:20.820Z,12.23
2022-12-25T11:44:53.188Z,18.92
2022-12-25T11:47:25.646Z,14.77
2022-12-25T11:50:00.782Z,15.10
2022-12-25T11:55:05.280Z,15.93
2022-12-25T11:57:32.990Z,18.67
2022-12-25T12:00:04.369Z,14.52
2022-12-25T12:02:42.416Z,14.05
2022-12-25T12:05:16.362Z,14.10
2022-12-25T12:07:50.588Z,15.00
2022-12-25T12:10:16.838Z,12.57
2022-12-25T12:13:01.882Z,14.98
2022-12-25T12:15:39.779Z,17.47
2022-12-25T12:18:18.509Z,17.13
2022-12-25T12:20:44.793Z,14.60
2022-12-25T12:23:15.871Z,17.02
2022-12-25T12:25:43.061Z,14.77
2022-12-25T12:28:13.303Z,21.27
2022-12-25T12:30:39.644Z,23.15
2022-12-25T12:33:06.842Z,17.77
2022-12-25T12:35:35.106Z,21.08
2022-12-25T12:38:06.887Z,15.60
2022-12-25T12:40:37.819Z,15.02
2022-12-25T12:43:04.982Z,13.38
2022-12-25T12:45:40.627Z,18.25
2022-12-25T12:48:24.896Z,13.25
2022-12-25T12:51:01.171Z,13.70
2022-12-25T12:53:29.670Z,14.35
2022-12-25T12:55:56.183Z,18.05
2022-12-25T12:58:28.539Z,15.25
2022-12-25T13:01:15.191Z,16.27
2022-12-25T13:03:59.881Z,13.40
2022-12-25T13:06:26.189Z,14.13
2022-12-25T13:08:55.581Z,18.25
2022-12-25T13:11:21.838Z,17.95
2022-12-25T13:13:49.446Z,20.20
2022-12-25T13:16:21.713Z,16.02
2022-12-25T13:18:48.455Z,15.40
2022-12-25T13:21:18.036Z,14.48
2022-12-25T13:23:44.381Z,17.10
2022-12-25T13:26:17.301Z,19.23
2022-12-25T13:28:45.948Z,18.80
2022-12-25T13:31:19.605Z,17.00
2022-12-25T13:33:47.149Z,12.93
2022-12-25T13:36:14.368Z,15.40
2022-12-25T13:38:48.892Z,18.38
2022-12-25T13:41:42.711Z,19.75
2022-12-25T13:44:20.703Z,16.45
2022-12-25T13:46:47.435Z,13.05
2022-12-25T13:49:18.241Z,18.08
2022-12-25T13:51:44.805Z,16.73
2022-12-25T13:54:13.124Z,17.10
2022-12-25T13:56:46.682Z,13.43
2022-12-25T13:59:15.535Z,16.80
2022-12-25T14:01:43.173Z,20.33
2022-12-25T14:04:14.237Z,16.77
2022-12-25T14:06:40.563Z,13.73
2022-12-25T14:09:08.952Z,19.27
2022-12-25T14:11:35.478Z,15.60
2022-12-25T14:14:04.012Z,17.48
2022-12-25T14:16:30.404Z,17.35
2022-12-25T14:18:58.146Z,17.35
2022-12-25T14:21:41.190Z,17.23
2022-12-25T14:24:14.713Z,16.08
2022-12-25T14:26:41.216Z,16.98
2022-12-25T14:29:17.141Z,23.15
2022-12-25T14:31:45.255Z,18.65
2022-12-25T14:34:20.577Z,17.50
2022-12-25T14:36:47.435Z,20.05
2022-12-25T14:39:25.078Z,19.30
2022-12-25T14:41:52.416Z,18.60
2022-12-25T14:44:28.240Z,17.60
2022-12-25T14:47:13.178Z,21.30
2022-12-25T14:49:39.562Z,18.40
2022-12-25T14:52:14.882Z,16.48
2022-12-25T14:54:44.897Z,17.58
2022-12-25T14:57:16.500Z,20.52
2022-12-25T14:59:43.144Z,19.38
2022-12-25T15:02:17.462Z,18.80
2022-12-25T15:04:44.664Z,17.17
2022-12-25T15:07:32.521Z,20.63
2022-12-25T15:10:27.042Z,20.20
2022-12-25T15:12:45.239Z,19.88
2022-12-25T15:15:13.208Z,45.70
2022-12-25T15:17:39.804Z,47.00
2022-12-25T15:20:08.717Z,25.95
2022-12-25T15:22:53.923Z,23.08
2022-12-25T15:25:21.801Z,22.05
2022-12-25T15:27:48.519Z,20.77
2022-12-25T15:30:14.970Z,18.13
2022-12-25T15:32:41.396Z,18.20
2022-12-25T15:35:13.197Z,21.63
2022-12-25T15:37:39.508Z,21.17
2022-12-25T15:40:06.909Z,23.25
2022-12-25T15:42:33.500Z,24.83
2022-12-25T15:44:59.820Z,22.83
2022-12-25T15:47:26.519Z,22.95
2022-12-25T15:49:52.787Z,20.85
2022-12-25T15:52:19.107Z,20.00
2022-12-25T15:54:45.506Z,19.85
2022-12-25T15:57:20.449Z,20.92
2022-12-25T15:59:46.857Z,19.52
2022-12-25T16:02:14.925Z,20.80
2022-12-25T16:04:42.475Z,22.00
2022-12-25T16:07:15.934Z,18.88
2022-12-25T16:09:43.225Z,23.52
2022-12-25T16:12:09.546Z,25.13
2022-12-25T16:14:36.094Z,20.48
2022-12-25T16:17:02.485Z,20.77
2022-12-25T16:19:28.851Z,21.58
2022-12-25T16:21:55.762Z,19.55
2022-12-25T16:24:22.201Z,22.15
2022-12-25T16:26:48.697Z,19.95
2022-12-25T16:29:15.076Z,19.75
2022-12-25T16:31:41.582Z,19.50
2022-12-25T16:34:08.947Z,18.55
2022-12-25T16:36:35.807Z,22.33
2022-12-25T16:39:03.139Z,20.95
2022-12-25T16:41:29.435Z,17.65
2022-12-25T16:43:55.712Z,21.73
2022-12-25T16:46:22.533Z,21.25
2022-12-25T16:48:49.033Z,20.38
2022-12-25T16:51:16.971Z,21.67
2022-12-25T16:53:44.408Z,21.95
2022-12-25T16:56:12.365Z,25.00
2022-12-25T16:58:38.637Z,23.75
2022-12-25T17:01:08.996Z,23.45
2022-12-25T17:03:35.777Z,21.83
2022-12-25T17:06:02.233Z,21.60
2022-12-25T17:08:29.009Z,21.95
2022-12-25T17:10:55.649Z,21.50
2022-12-25T17:13:22.063Z,20.58
2022-12-25T17:15:50.574Z,22.80
2022-12-25T17:18:21.735Z,18.63
2022-12-25T17:20:51.765Z,20.58
2022-12-25T17:23:18.122Z,22.55
2022-12-25T17:25:45.573Z,23.40
2022-12-25T17:28:12.417Z,25.30
2022-12-25T17:30:38.777Z,24.45
2022-12-25T17:33:05.099Z,25.92
2022-12-25T17:35:34.149Z,29.60
2022-12-25T17:38:00.457Z,29.70
2022-12-25T17:40:26.752Z,32.22
2022-12-25T17:42:53.908Z,26.80
2022-12-25T17:45:20.219Z,35.92
2022-12-25T17:47:46.488Z,33.28
2022-12-25T17:50:13.031Z,32.88
2022-12-25T17:52:39.540Z,33.40
2022-12-25T17:55:06.238Z,27.73
2022-12-25T17:57:32.515Z,31.50
2022-12-25T17:59:58.833Z,28.55
2022-12-25T18:02:25.230Z,29.08
2022-12-25T18:04:51.708Z,23.85
2022-12-25T18:07:18.100Z,26.38
2022-12-25T18:09:44.413Z,29.75
2022-12-25T18:12:10.701Z,27.65
2022-12-25T18:14:37.458Z,23.55
2022-12-25T18:17:03.827Z,25.67
2022-12-25T18:19:30.216Z,24.63
2022-12-25T18:21:56.587Z,31.55
2022-12-25T18:24:22.909Z,31.60
2022-12-25T18:26:49.243Z,30.10
2022-12-25T18:29:15.621Z,29.30
2022-12-25T18:31:42.420Z,26.27
2022-12-25T18:34:08.872Z,29.42
2022-12-25T18:36:35.304Z,28.40
2022-12-25T18:39:01.634Z,29.88
2022-12-25T18:41:28.760Z,28.63
2022-12-25T18:43:56.007Z,33.25
2022-12-25T18:46:27.243Z,29.17
2022-12-25T18:48:57.585Z,32.00
2022-12-25T18:51:24.400Z,26.80
2022-12-25T18:53:51.769Z,31.67
2022-12-25T18:56:18.723Z,28.75
2022-12-25T18:58:45.924Z,27.13
2022-12-25T19:01:13.476Z,28.83
2022-12-25T19:03:39.922Z,32.65
2022-12-25T19:06:06.478Z,30.10
2022-12-25T19:08:32.744Z,31.15
2022-12-25T19:10:59.133Z,36.28
2022-12-25T19:13:25.420Z,37.15
2022-12-25T19:15:51.694Z,38.80
2022-12-25T19:18:17.977Z,29.02
2022-12-25T19:20:44.500Z,29.52
2022-12-25T19:23:10.798Z,30.75
2022-12-25T19:25:38.649Z,25.27
2022-12-25T19:28:05.020Z,26.23
2022-12-25T19:30:31.293Z,26.60
2022-12-25T19:32:57.582Z,23.98
2022-12-25T19:35:24.019Z,36.30
2022-12-25T19:37:50.409Z,31.83
2022-12-25T19:40:16.721Z,30.42
2022-12-25T19:42:43.351Z,30.08
2022-12-25T19:45:09.897Z,30.77
2022-12-25T19:47:36.167Z,33.15
2022-12-25T19:50:03.625Z,35.10
2022-12-25T19:52:30.168Z,43.60
2022-12-25T19:54:56.523Z,45.03
2022-12-25T19:57:22.777Z,42.25
2022-12-25T19:59:49.450Z,28.30
2022-12-25T20:02:15.874Z,27.95
2022-12-25T20:04:42.639Z,26.73
2022-12-25T20:07:09.106Z,24.80
2022-12-25T20:09:35.617Z,22.75
2022-12-25T20:12:02.398Z,24.80
2022-12-25T20:14:28.805Z,24.52
2022-12-25T20:16:55.140Z,24.27
2022-12-25T20:19:21.616Z,22.52
2022-12-25T20:21:47.971Z,23.15
2022-12-25T20:24:14.467Z,21.08
2022-12-25T20:26:41.491Z,22.20
2022-12-25T20:29:09.076Z,19.17
2022-12-25T20:31:35.692Z,21.45
2022-12-25T20:34:06.771Z,24.77
2022-12-25T20:36:37.328Z,21.50
2022-12-25T20:39:04.798Z,21.80
2022-12-25T20:41:31.177Z,23.33
2022-12-25T20:43:57.920Z,21.75
2022-12-25T20:46:25.015Z,22.15
2022-12-25T20:48:52.683Z,21.15
2022-12-25T20:51:20.538Z,21.58
2022-12-25T20:53:46.998Z,21.80
2022-12-25T20:56:14.540Z,23.52
2022-12-25T20:58:41.438Z,23.00
2022-12-25T21:01:10.112Z,22.20
2022-12-25T21:03:36.972Z,23.23
2022-12-25T21:06:03.831Z,24.15
2022-12-25T21:08:30.173Z,22.45
2022-12-25T21:11:00.664Z,25.70
2022-12-25T21:13:30.534Z,24.90
2022-12-25T21:15:57.734Z,26.40
2022-12-25T21:18:25.203Z,28.88
2022-12-25T21:20:52.946Z,27.48
2022-12-25T21:23:19.829Z,26.85
2022-12-25T21:25:46.346Z,25.98
2022-12-25T21:28:13.469Z,28.15
2022-12-25T21:30:39.809Z,26.95
2022-12-25T21:33:24.704Z,32.55
2022-12-25T21:35:50.923Z,21.83
2022-12-25T21:38:17.698Z,30.70
2022-12-25T21:40:44.659Z,30.92
2022-12-25T21:43:12.481Z,30.83
2022-12-25T21:45:38.764Z,30.88
2022-12-25T21:48:05.220Z,34.22
2022-12-25T21:50:50.256Z,43.90
2022-12-25T21:53:17.392Z,33.97
2022-12-25T21:55:54.427Z,38.05
2022-12-25T21:58:20.738Z,35.72
2022-12-25T22:00:47.349Z,38.58
2022-12-25T22:03:13.699Z,39.38
2022-12-25T22:05:58.524Z,45.75
2022-12-25T22:08:28.582Z,39.03
2022-12-25T22:10:54.841Z,42.13
2022-12-25T22:13:39.988Z,41.85
2022-12-25T22:16:24.768Z,41.22
2022-12-25T22:19:10.086Z,46.17
2022-12-25T22:21:36.347Z,43.60
2022-12-25T22:24:02.592Z,46.58
2022-12-25T22:26:29.987Z,41.92
2022-12-25T22:28:56.245Z,44.72
2022-12-25T22:31:22.546Z,40.88
2022-12-25T22:33:48.833Z,44.17
2022-12-25T22:36:15.155Z,43.50
2022-12-25T22:38:42.471Z,43.80
2022-12-25T22:41:08.853Z,41.53
2022-12-25T22:44:14.403Z,39.65
2022-12-25T22:46:21.902Z,35.22
2022-12-25T22:48:48.317Z,38.10
2022-12-25T22:51:14.648Z,37.17
2022-12-25T22:53:41.204Z,40.10
2022-12-25T22:56:09.259Z,36.42
2022-12-25T22:58:35.619Z,40.35
2022-12-25T23:01:02.316Z,38.05
2022-12-25T23:03:28.740Z,32.72
2022-12-25T23:05:55.538Z,31.30
2022-12-25T23:08:22.595Z,30.98
2022-12-25T23:10:49.125Z,29.02
2022-12-25T23:13:34.378Z,31.92
2022-12-25T23:16:01.090Z,29.95
2022-12-25T23:18:46.296Z,27.88
2022-12-25T23:21:32.131Z,27.75
2022-12-25T23:24:16.965Z,23.98
2022-12-25T23:26:44.563Z,22.85
2022-12-25T23:29:29.664Z,26.52
2022-12-25T23:31:57.158Z,21.47
2022-12-25T23:34:24.060Z,19.63
2022-12-25T23:36:50.390Z,25.30
2022-12-25T23:39:16.722Z,24.30
2022-12-25T23:41:43.671Z,25.05
2022-12-25T23:44:11.243Z,23.15
2022-12-25T23:46:37.865Z,22.05
2022-12-25T23:49:04.438Z,22.90
2022-12-25T23:51:30.740Z,24.42
2022-12-25T23:53:57.051Z,24.63
2022-12-25T23:56:23.419Z,23.52
2022-12-25T23:58:51.938Z,25.17
